Time;durP1;ratioP1;P1;durP2;ratioP2;P2;SDS_P1;SDS_P2;PMS_P1;PMS_P2;Temp;Humidity;BMP_temperature;BMP_pressure;BME280_temperature;BME280_humidity;BME280_pressure;Samples;Min_cycle;Max_cycle;Signal;HPM_P1;HPM_P2
2022/08/31 00:04:56;;;;;;;2.05;0.77;;;15.10;99.90;;;;;;5001756;28;20284;-75
2022/08/31 00:07:22;;;;;;;1.20;0.70;;;15.10;99.90;;;;;;4998814;28;20056;-77
2022/08/31 00:09:49;;;;;;;0.80;0.70;;;15.10;99.90;;;;;;5018032;28;20440;-76
2022/08/31 00:12:15;;;;;;;1.02;0.55;;;15.10;99.90;;;;;;5019424;28;20045;-74
2022/08/31 00:14:41;;;;;;;1.65;0.60;;;15.10;99.90;;;;;;5024693;28;20046;-76
2022/08/31 00:17:06;;;;;;;1.10;0.65;;;15.00;99.90;;;;;;4999365;28;20037;-76
2022/08/31 00:19:32;;;;;;;0.70;0.45;;;15.00;99.90;;;;;;4998909;28;20042;-76
2022/08/31 00:21:58;;;;;;;0.98;0.60;;;15.00;99.90;;;;;;5031913;28;20099;-75
2022/08/31 00:24:24;;;;;;;1.13;0.57;;;15.00;99.90;;;;;;4998710;28;20166;-76
2022/08/31 00:26:50;;;;;;;1.23;0.60;;;14.90;99.90;;;;;;4998198;28;20093;-76
2022/08/31 00:29:16;;;;;;;1.88;0.80;;;14.90;99.90;;;;;;4999290;28;20053;-75
2022/08/31 00:31:41;;;;;;;0.80;0.70;;;14.90;99.90;;;;;;5015844;28;20049;-76
2022/08/31 00:34:07;;;;;;;0.65;0.60;;;14.90;99.90;;;;;;4999235;28;20052;-76
2022/08/31 00:36:33;;;;;;;1.13;0.60;;;14.80;99.90;;;;;;5015229;28;20128;-76
2022/08/31 00:38:59;;;;;;;0.60;0.35;;;14.80;99.90;;;;;;4999405;28;20041;-76
2022/08/31 00:41:28;;;;;;;1.35;0.60;;;14.80;99.90;;;;;;5014646;28;20041;-77
2022/08/31 00:43:55;;;;;;;2.38;0.57;;;14.70;99.90;;;;;;5015513;28;20402;-75
2022/08/31 00:46:27;;;;;;;0.70;0.70;;;14.60;99.90;;;;;;5014844;28;20045;-77
2022/08/31 00:49:10;;;;;;;1.17;0.90;;;14.40;99.90;;;;;;4998804;28;20052;-77
2022/08/31 00:51:40;;;;;;;1.00;0.60;;;14.20;99.90;;;;;;4998619;28;20048;-75
2022/08/31 00:54:08;;;;;;;2.42;0.88;;;14.20;99.90;;;;;;5014777;28;20048;-77
2022/08/31 00:56:35;;;;;;;0.80;0.70;;;14.10;99.90;;;;;;4998750;28;20037;-77
2022/08/31 00:59:01;;;;;;;0.90;0.65;;;14.10;99.90;;;;;;4998808;28;20057;-76
2022/08/31 01:01:28;;;;;;;0.52;0.47;;;14.10;99.90;;;;;;5014771;28;20038;-75
2022/08/31 01:03:54;;;;;;;1.92;0.60;;;14.00;99.90;;;;;;5014887;28;20080;-76
2022/08/31 01:06:21;;;;;;;1.73;0.93;;;13.70;99.90;;;;;;5014226;28;20096;-75
2022/08/31 01:08:47;;;;;;;0.82;0.65;;;13.50;99.90;;;;;;4998373;28;20049;-75
2022/08/31 01:11:14;;;;;;;0.95;0.70;;;13.50;99.90;;;;;;4997957;28;20053;-75
2022/08/31 01:13:40;;;;;;;0.80;0.77;;;13.50;99.90;;;;;;5014834;28;20045;-75
2022/08/31 01:16:13;;;;;;;0.68;0.68;;;13.40;99.90;;;;;;4998090;28;20136;-74
2022/08/31 01:18:41;;;;;;;0.90;0.82;;;13.40;99.90;;;;;;4998173;28;20047;-75
2022/08/31 01:21:33;;;;;;;1.25;1.10;;;13.40;99.90;;;;;;5014598;28;20041;-75
2022/08/31 01:24:01;;;;;;;1.60;0.80;;;13.30;99.90;;;;;;4998589;28;20037;-75
2022/08/31 01:26:28;;;;;;;1.52;0.95;;;13.30;99.90;;;;;;4997570;28;20057;-75
2022/08/31 01:28:59;;;;;;;1.15;0.90;;;13.30;99.90;;;;;;5014296;28;20063;-75
2022/08/31 01:31:41;;;;;;;0.90;0.80;;;13.30;99.90;;;;;;5013934;28;20084;-75
2022/08/31 01:34:07;;;;;;;2.08;0.70;;;13.30;99.90;;;;;;4998136;28;20048;-74
2022/08/31 01:36:34;;;;;;;1.50;0.80;;;13.30;99.90;;;;;;5014057;28;20128;-75
2022/08/31 01:39:00;;;;;;;2.20;0.90;;;13.30;99.90;;;;;;4997951;28;20498;-75
2022/08/31 01:41:26;;;;;;;0.90;0.70;;;13.20;99.90;;;;;;5014231;28;20050;-76
2022/08/31 01:43:53;;;;;;;1.80;0.80;;;13.20;99.90;;;;;;4981743;28;20498;-75
2022/08/31 01:46:20;;;;;;;1.25;0.82;;;13.20;99.90;;;;;;4981338;28;20382;-76
2022/08/31 01:48:46;;;;;;;0.85;0.60;;;13.10;99.90;;;;;;5014544;28;20559;-76
2022/08/31 01:51:13;;;;;;;0.70;0.70;;;13.10;99.90;;;;;;5013634;28;20048;-75
2022/08/31 01:53:40;;;;;;;0.70;0.70;;;13.10;99.90;;;;;;5014148;28;20409;-75
2022/08/31 01:56:28;;;;;;;1.45;0.93;;;13.10;99.90;;;;;;4997531;28;20045;-75
2022/08/31 01:58:54;;;;;;;1.83;0.60;;;13.10;99.90;;;;;;4997951;28;20079;-75
2022/08/31 02:01:23;;;;;;;1.40;0.80;;;13.10;99.90;;;;;;4997221;28;20041;-75
2022/08/31 02:03:49;;;;;;;0.77;0.70;;;13.00;99.90;;;;;;5013891;28;20045;-75
2022/08/31 02:06:14;;;;;;;1.55;0.90;;;12.90;99.90;;;;;;4997104;28;20038;-75
2022/08/31 02:08:40;;;;;;;1.05;0.80;;;12.90;99.90;;;;;;4981201;28;20098;-75
2022/08/31 02:11:06;;;;;;;1.02;0.70;;;12.90;99.90;;;;;;4997405;28;20045;-75
2022/08/31 02:13:33;;;;;;;0.90;0.80;;;12.90;99.90;;;;;;5013428;28;20045;-75
2022/08/31 02:15:59;;;;;;;1.77;1.00;;;12.80;99.90;;;;;;5029533;28;20219;-75
2022/08/31 02:18:26;;;;;;;1.90;1.05;;;12.80;99.90;;;;;;5013581;28;20495;-75
2022/08/31 02:20:51;;;;;;;0.80;0.70;;;12.80;99.90;;;;;;4997104;28;20033;-77
2022/08/31 02:23:17;;;;;;;2.15;0.80;;;12.80;99.90;;;;;;4980584;28;20398;-76
2022/08/31 02:25:43;;;;;;;1.98;0.82;;;12.80;99.90;;;;;;4990605;28;20092;-75
2022/08/31 02:28:12;;;;;;;2.05;0.70;;;12.80;99.90;;;;;;4994652;28;20565;-76
2022/08/31 02:30:40;;;;;;;2.13;0.90;;;12.80;99.90;;;;;;4998000;28;20045;-77
2022/08/31 02:33:06;;;;;;;1.42;0.70;;;12.80;99.90;;;;;;5013829;28;20069;-77
2022/08/31 02:35:33;;;;;;;1.30;0.90;;;12.70;99.90;;;;;;4996763;28;20877;-76
2022/08/31 02:37:59;;;;;;;0.95;0.80;;;12.70;99.90;;;;;;5013598;28;20049;-76
2022/08/31 02:40:25;;;;;;;0.75;0.60;;;12.70;99.90;;;;;;5029275;28;20077;-79
2022/08/31 02:42:51;;;;;;;1.17;0.70;;;12.70;99.90;;;;;;4997169;28;20099;-76
2022/08/31 02:45:16;;;;;;;1.13;0.70;;;12.70;99.90;;;;;;5013353;28;20171;-76
2022/08/31 02:47:42;;;;;;;0.70;0.70;;;12.70;99.90;;;;;;4981246;28;20053;-74
2022/08/31 02:50:08;;;;;;;0.80;0.77;;;12.60;99.90;;;;;;4997439;28;20056;-76
2022/08/31 02:52:34;;;;;;;0.75;0.65;;;12.60;99.90;;;;;;4996662;28;20045;-75
2022/08/31 02:55:00;;;;;;;2.33;0.80;;;12.60;99.90;;;;;;4980396;28;20064;-76
2022/08/31 02:57:25;;;;;;;1.30;0.80;;;12.60;99.90;;;;;;4980335;28;20042;-77
2022/08/31 02:59:51;;;;;;;0.80;0.80;;;12.60;99.90;;;;;;5013554;28;20037;-76
2022/08/31 03:02:17;;;;;;;1.02;0.90;;;12.50;99.90;;;;;;5012773;28;20120;-76
2022/08/31 03:04:42;;;;;;;2.40;0.77;;;12.60;99.90;;;;;;5013071;28;20043;-76
2022/08/31 03:07:08;;;;;;;3.70;0.80;;;12.60;99.90;;;;;;4996881;28;20111;-76
2022/08/31 03:09:34;;;;;;;0.80;0.70;;;12.60;99.90;;;;;;4996299;28;20053;-76
2022/08/31 03:12:00;;;;;;;1.08;0.85;;;12.60;99.90;;;;;;5013367;28;20432;-75
2022/08/31 03:14:26;;;;;;;0.88;0.80;;;12.70;99.90;;;;;;4996693;28;20041;-76
2022/08/31 03:16:53;;;;;;;1.63;0.82;;;12.70;99.90;;;;;;5012552;28;20068;-76
2022/08/31 03:19:19;;;;;;;1.88;0.93;;;12.80;99.90;;;;;;4996754;28;20410;-75
2022/08/31 03:21:45;;;;;;;1.30;0.70;;;12.70;99.90;;;;;;5013153;28;20128;-75
2022/08/31 03:24:13;;;;;;;1.23;0.70;;;12.80;99.90;;;;;;5012948;28;20045;-75
2022/08/31 03:26:39;;;;;;;1.95;1.05;;;12.80;99.90;;;;;;4996140;28;20148;-75
2022/08/31 03:29:06;;;;;;;1.73;1.00;;;12.80;99.90;;;;;;5013229;28;20038;-75
2022/08/31 03:31:31;;;;;;;0.93;0.80;;;12.70;99.90;;;;;;4996452;28;20069;-75
2022/08/31 03:33:58;;;;;;;1.10;1.00;;;12.80;99.90;;;;;;4998075;28;20068;-77
2022/08/31 03:36:24;;;;;;;1.00;0.90;;;12.70;99.90;;;;;;5000160;28;20057;-74
2022/08/31 03:38:49;;;;;;;1.70;0.90;;;12.70;99.90;;;;;;4984023;28;20050;-75
2022/08/31 03:41:19;;;;;;;1.17;1.00;;;12.70;99.90;;;;;;5016306;28;20053;-76
2022/08/31 03:43:45;;;;;;;1.70;0.90;;;12.70;99.90;;;;;;5000497;28;20440;-76
2022/08/31 03:46:11;;;;;;;1.70;0.95;;;12.60;99.90;;;;;;4983925;28;20145;-75
2022/08/31 03:48:36;;;;;;;1.73;0.90;;;12.60;99.90;;;;;;5016263;28;20689;-76
2022/08/31 03:51:02;;;;;;;1.50;1.00;;;12.60;99.90;;;;;;5000133;28;20175;-77
2022/08/31 03:53:28;;;;;;;1.35;1.05;;;12.60;99.90;;;;;;4999494;28;20079;-75
2022/08/31 03:56:00;;;;;;;1.10;1.00;;;12.60;99.90;;;;;;5000246;28;20038;-76
2022/08/31 03:58:27;;;;;;;1.90;1.05;;;12.60;99.90;;;;;;4984579;28;20054;-76
2022/08/31 04:00:53;;;;;;;1.00;0.90;;;12.50;99.90;;;;;;5000226;28;20390;-75
2022/08/31 04:03:19;;;;;;;1.30;1.05;;;12.50;99.90;;;;;;4983438;28;20045;-76
2022/08/31 04:05:45;;;;;;;1.33;0.90;;;12.50;99.90;;;;;;4999464;28;20037;-76
2022/08/31 04:08:12;;;;;;;2.55;1.10;;;12.50;99.90;;;;;;4999858;28;20056;-76
2022/08/31 04:10:39;;;;;;;3.25;1.20;;;12.40;99.90;;;;;;4999698;28;20405;-75
2022/08/31 04:13:05;;;;;;;1.10;1.00;;;12.40;99.90;;;;;;4999827;28;20041;-75
2022/08/31 04:15:31;;;;;;;2.05;1.17;;;12.40;99.90;;;;;;5015451;28;20393;-75
2022/08/31 04:17:57;;;;;;;1.70;1.08;;;12.40;99.90;;;;;;4999521;28;20062;-74
2022/08/31 04:20:23;;;;;;;1.38;1.13;;;12.40;99.90;;;;;;4999419;28;20040;-76
2022/08/31 04:22:48;;;;;;;1.65;1.33;;;12.30;99.90;;;;;;4983736;28;20137;-76
2022/08/31 04:25:14;;;;;;;2.38;1.30;;;12.30;99.90;;;;;;4999690;28;20041;-75
2022/08/31 04:27:40;;;;;;;1.67;1.30;;;12.20;99.90;;;;;;4983980;28;20060;-76
2022/08/31 04:30:07;;;;;;;2.22;1.20;;;12.20;99.90;;;;;;4984816;28;20072;-75
2022/08/31 04:32:34;;;;;;;2.33;1.30;;;12.20;99.90;;;;;;5000595;28;20388;-75
2022/08/31 04:35:00;;;;;;;2.15;1.70;;;12.20;99.90;;;;;;5020043;28;20045;-75
2022/08/31 04:37:26;;;;;;;1.50;1.40;;;12.20;99.90;;;;;;5023773;28;20060;-73
2022/08/31 04:39:55;;;;;;;2.55;1.27;;;12.20;99.90;;;;;;5022974;28;20044;-74
2022/08/31 04:42:20;;;;;;;2.00;1.48;;;12.20;99.90;;;;;;4988149;28;20045;-76
2022/08/31 04:44:46;;;;;;;2.53;1.50;;;12.20;99.90;;;;;;5015830;28;20060;-76
2022/08/31 04:47:11;;;;;;;1.40;1.30;;;12.10;99.90;;;;;;5000965;28;20049;-76
2022/08/31 04:49:37;;;;;;;1.55;1.35;;;12.20;99.90;;;;;;5022997;28;20072;-75
2022/08/31 04:52:03;;;;;;;1.50;1.30;;;12.20;99.90;;;;;;5007979;28;20045;-75
2022/08/31 04:54:29;;;;;;;2.78;1.70;;;12.20;99.90;;;;;;4987177;28;20053;-75
2022/08/31 04:56:57;;;;;;;3.08;1.40;;;12.20;99.90;;;;;;4999662;28;20052;-77
2022/08/31 04:59:26;;;;;;;2.22;1.45;;;12.20;99.90;;;;;;4999698;28;20140;-74
2022/08/31 05:01:52;;;;;;;1.92;1.65;;;12.20;99.90;;;;;;4999179;28;20044;-77
2022/08/31 05:04:18;;;;;;;2.67;1.40;;;12.10;99.90;;;;;;4982794;28;20049;-76
2022/08/31 05:06:45;;;;;;;1.60;1.33;;;12.10;99.90;;;;;;5015171;28;20052;-76
2022/08/31 05:09:14;;;;;;;2.25;1.50;;;12.10;99.90;;;;;;4998598;28;20127;-74
2022/08/31 05:11:40;;;;;;;1.50;1.35;;;12.10;99.90;;;;;;5014574;28;20087;-76
2022/08/31 05:14:07;;;;;;;2.67;1.77;;;12.10;99.90;;;;;;5014950;28;20077;-76
2022/08/31 05:16:36;;;;;;;2.00;1.63;;;12.20;99.90;;;;;;5014210;28;20125;-76
2022/08/31 05:19:01;;;;;;;1.60;1.50;;;12.20;99.90;;;;;;5014270;28;20140;-75
2022/08/31 05:21:30;;;;;;;3.85;1.83;;;12.10;99.90;;;;;;5014088;28;20124;-75
2022/08/31 05:23:59;;;;;;;3.55;1.75;;;12.20;99.90;;;;;;5014506;28;20099;-75
2022/08/31 05:26:29;;;;;;;2.85;1.67;;;12.10;99.90;;;;;;5025950;28;20057;-75
2022/08/31 05:28:55;;;;;;;2.08;1.88;;;12.10;99.90;;;;;;5017740;28;20095;-75
2022/08/31 05:31:22;;;;;;;2.75;1.40;;;12.10;99.90;;;;;;5000540;28;20041;-75
2022/08/31 05:33:48;;;;;;;2.25;1.52;;;12.10;99.90;;;;;;5017818;28;20124;-75
2022/08/31 05:36:14;;;;;;;1.63;1.50;;;12.10;99.90;;;;;;5001800;28;20041;-74
2022/08/31 05:38:40;;;;;;;1.70;1.42;;;12.10;99.90;;;;;;5034744;28;20899;-75
2022/08/31 05:41:07;;;;;;;2.55;1.58;;;13.00;99.90;;;;;;5039870;28;20549;-74
2022/08/31 05:43:33;;;;;;;2.58;1.83;;;12.20;99.90;;;;;;5022800;28;20045;-74
2022/08/31 05:45:59;;;;;;;2.92;1.48;;;12.20;99.90;;;;;;5003352;28;20768;-75
2022/08/31 05:48:26;;;;;;;2.65;1.85;;;12.20;99.90;;;;;;5017043;28;20862;-76
2022/08/31 05:50:53;;;;;;;2.30;1.83;;;12.30;99.90;;;;;;5033681;28;20086;-75
2022/08/31 05:53:19;;;;;;;2.30;1.50;;;12.40;99.90;;;;;;5017197;28;20053;-75
2022/08/31 05:55:44;;;;;;;1.88;1.67;;;12.40;99.90;;;;;;5015831;28;20033;-75
2022/08/31 05:58:11;;;;;;;2.38;1.30;;;12.40;99.90;;;;;;4984104;28;20045;-75
2022/08/31 06:00:38;;;;;;;2.40;1.40;;;12.50;99.90;;;;;;5000610;28;20554;-75
2022/08/31 06:03:04;;;;;;;2.17;1.80;;;12.50;99.90;;;;;;5032984;28;20174;-74
2022/08/31 06:05:30;;;;;;;2.65;1.58;;;12.70;99.90;;;;;;5016346;28;20198;-76
2022/08/31 06:07:56;;;;;;;3.22;1.63;;;12.70;99.90;;;;;;5032767;28;20128;-75
2022/08/31 06:10:22;;;;;;;4.45;1.38;;;12.80;99.90;;;;;;5032826;28;20037;-76
2022/08/31 06:12:48;;;;;;;3.85;1.67;;;12.90;99.90;;;;;;5031822;28;20084;-76
2022/08/31 06:15:14;;;;;;;1.48;1.30;;;12.90;99.90;;;;;;5025615;28;20052;-77
2022/08/31 06:17:40;;;;;;;1.98;1.63;;;13.00;99.90;;;;;;5019473;28;20067;-76
2022/08/31 06:20:07;;;;;;;1.83;1.38;;;13.10;99.90;;;;;;5053062;28;20036;-76
2022/08/31 06:22:36;;;;;;;4.53;1.42;;;13.30;99.90;;;;;;5036272;28;20072;-74
2022/08/31 06:25:05;;;;;;;1.70;1.50;;;13.50;99.90;;;;;;5003392;28;20539;-74
2022/08/31 06:27:33;;;;;;;2.30;1.40;;;13.70;99.90;;;;;;5033013;28;20067;-74
2022/08/31 06:30:00;;;;;;;2.40;1.50;;;13.80;99.90;;;;;;5049817;28;20049;-75
2022/08/31 06:32:26;;;;;;;3.05;1.35;;;14.00;99.90;;;;;;5033003;28;20053;-76
2022/08/31 06:34:52;;;;;;;1.50;1.40;;;14.10;99.90;;;;;;5049278;28;20033;-75
2022/08/31 06:37:18;;;;;;;2.20;1.25;;;14.20;99.90;;;;;;5032854;28;20047;-74
2022/08/31 06:39:43;;;;;;;1.50;1.20;;;14.30;99.90;;;;;;5032999;28;20033;-75
2022/08/31 06:42:09;;;;;;;2.22;1.60;;;14.40;99.90;;;;;;5032617;28;20417;-76
2022/08/31 06:44:35;;;;;;;2.75;1.17;;;14.50;99.90;;;;;;5032651;28;20099;-76
2022/08/31 06:47:01;;;;;;;2.97;1.30;;;14.60;99.90;;;;;;5032823;28;20466;-75
2022/08/31 06:49:27;;;;;;;1.77;1.33;;;14.70;99.90;;;;;;5033073;28;20045;-74
2022/08/31 06:51:53;;;;;;;2.67;1.65;;;14.80;99.90;;;;;;5049746;28;20099;-75
2022/08/31 06:54:19;;;;;;;2.15;1.30;;;14.90;99.90;;;;;;5033207;28;20815;-75
2022/08/31 06:56:45;;;;;;;1.60;1.48;;;15.00;99.90;;;;;;5031643;28;20037;-74
2022/08/31 06:59:12;;;;;;;1.85;1.38;;;15.10;99.90;;;;;;5032868;28;20358;-74
2022/08/31 07:01:38;;;;;;;1.33;1.20;;;15.20;99.90;;;;;;5032723;28;20365;-77
2022/08/31 07:04:09;;;;;;;2.15;1.35;;;15.40;99.90;;;;;;5001534;28;20033;-77
2022/08/31 07:06:38;;;;;;;2.63;1.10;;;15.50;99.90;;;;;;5016215;28;20045;-74
2022/08/31 07:09:07;;;;;;;2.35;1.00;;;15.50;99.90;;;;;;5035710;28;20048;-76
2022/08/31 07:11:37;;;;;;;1.98;1.10;;;15.50;99.90;;;;;;5036556;28;20445;-74
2022/08/31 07:14:04;;;;;;;1.35;0.80;;;15.70;99.90;;;;;;5037206;28;20040;-75
2022/08/31 07:16:31;;;;;;;2.30;0.90;;;15.70;99.90;;;;;;5003697;28;20464;-75
2022/08/31 07:18:59;;;;;;;2.10;0.70;;;15.80;99.90;;;;;;5036482;28;20037;-76
2022/08/31 07:21:32;;;;;;;1.33;0.90;;;15.80;99.90;;;;;;5036494;28;20052;-74
2022/08/31 07:24:00;;;;;;;3.15;0.77;;;15.90;99.90;;;;;;5036369;28;20052;-75
2022/08/31 07:26:30;;;;;;;0.88;0.65;;;15.90;99.90;;;;;;5019288;28;20076;-76
2022/08/31 07:28:57;;;;;;;3.10;0.70;;;16.00;99.90;;;;;;5019624;28;20049;-76
2022/08/31 07:31:26;;;;;;;0.77;0.65;;;16.10;99.90;;;;;;5019888;28;20045;-76
2022/08/31 07:33:54;;;;;;;1.63;0.80;;;16.20;99.90;;;;;;5019112;28;20131;-74
2022/08/31 07:36:22;;;;;;;1.05;0.68;;;16.20;99.90;;;;;;5019001;28;20174;-74
2022/08/31 07:44:20;;;;;;;2.22;0.85;;;16.50;99.90;;;;;;5039496;28;20048;-75
2022/08/31 07:46:46;;;;;;;2.90;1.10;;;16.50;99.90;;;;;;5051544;28;20107;-74
2022/08/31 07:49:14;;;;;;;1.48;0.80;;;16.50;99.90;;;;;;5036358;28;20080;-75
2022/08/31 07:51:44;;;;;;;0.90;0.65;;;16.60;99.90;;;;;;5052625;28;20135;-75
2022/08/31 07:54:12;;;;;;;0.73;0.70;;;16.70;99.90;;;;;;5035875;28;20084;-75
2022/08/31 07:56:38;;;;;;;1.85;0.80;;;16.70;99.90;;;;;;5052487;28;20044;-75
2022/08/31 07:59:06;;;;;;;2.15;0.77;;;16.90;99.90;;;;;;5035921;28;20040;-76
2022/08/31 08:01:33;;;;;;;1.98;0.70;;;17.00;99.90;;;;;;5036615;28;20091;-76
2022/08/31 08:04:01;;;;;;;1.10;0.68;;;17.00;99.90;;;;;;5035704;28;20551;-75
2022/08/31 08:06:27;;;;;;;1.52;0.93;;;17.10;99.90;;;;;;5052234;28;20041;-76
2022/08/31 08:08:54;;;;;;;2.28;1.10;;;17.20;99.90;;;;;;5052231;28;20041;-75
2022/08/31 08:11:21;;;;;;;2.33;1.30;;;17.40;99.90;;;;;;5035437;28;20105;-75
2022/08/31 08:13:47;;;;;;;4.03;1.10;;;17.40;99.90;;;;;;5051479;28;20068;-75
2022/08/31 08:16:14;;;;;;;1.98;0.82;;;17.40;99.90;;;;;;5018414;28;20143;-77
2022/08/31 08:18:40;;;;;;;1.58;1.10;;;17.40;99.90;;;;;;5051549;28;20102;-76
2022/08/31 08:21:07;;;;;;;1.80;0.80;;;17.40;99.90;;;;;;5035406;28;20603;-78
2022/08/31 08:23:33;;;;;;;1.77;0.88;;;17.50;99.90;;;;;;5019591;28;20033;-81
2022/08/31 08:26:00;;;;;;;1.52;0.95;;;17.60;99.90;;;;;;5035093;28;20102;-80
2022/08/31 08:28:30;;;;;;;2.80;0.95;;;17.60;99.90;;;;;;5052268;28;20508;-77
2022/08/31 08:31:00;;;;;;;0.80;0.70;;;17.60;99.90;;;;;;5035323;28;20366;-76
2022/08/31 08:33:27;;;;;;;2.17;1.00;;;17.80;99.90;;;;;;5036271;28;20056;-80
2022/08/31 08:35:55;;;;;;;2.28;1.00;;;18.00;99.90;;;;;;5051171;28;20045;-77
2022/08/31 08:38:23;;;;;;;1.83;0.75;;;18.00;99.90;;;;;;5035360;28;20052;-77
2022/08/31 08:40:50;;;;;;;1.63;0.80;;;18.20;99.90;;;;;;5034924;28;20049;-77
2022/08/31 08:43:19;;;;;;;1.98;1.02;;;18.30;99.90;;;;;;5051457;28;20052;-76
2022/08/31 08:45:50;;;;;;;0.80;0.73;;;18.30;99.90;;;;;;5034153;28;20119;-76
2022/08/31 08:48:19;;;;;;;1.23;0.88;;;18.40;99.90;;;;;;5034785;28;20043;-75
2022/08/31 08:50:45;;;;;;;0.93;0.80;;;18.30;99.90;;;;;;5034986;28;20376;-76
2022/08/31 08:53:12;;;;;;;1.02;0.77;;;18.40;99.90;;;;;;5034710;28;20132;-76
2022/08/31 08:55:40;;;;;;;1.00;0.80;;;18.40;99.90;;;;;;5050624;28;20051;-76
2022/08/31 08:58:09;;;;;;;1.50;0.90;;;18.70;99.90;;;;;;5051040;28;20041;-75
2022/08/31 09:00:37;;;;;;;3.58;0.90;;;18.70;99.90;;;;;;5034816;28;20131;-76
2022/08/31 09:03:40;;;;;;;6.32;1.05;;;18.80;99.90;;;;;;5050825;28;20044;-75
2022/08/31 09:06:24;;;;;;;1.27;0.70;;;18.90;99.90;;;;;;5034530;28;20128;-75
2022/08/31 09:09:10;;;;;;;4.22;1.55;;;19.10;99.90;;;;;;5034026;28;20037;-75
2022/08/31 09:11:54;;;;;;;1.52;0.85;;;19.10;99.90;;;;;;5034860;28;20385;-76
2022/08/31 09:14:20;;;;;;;1.45;0.93;;;19.20;99.90;;;;;;5034501;28;20037;-74
2022/08/31 09:16:55;;;;;;;1.65;0.90;;;19.30;99.90;;;;;;5050330;28;20633;-75
2022/08/31 09:19:20;;;;;;;1.25;0.80;;;19.30;99.90;;;;;;5050743;28;20044;-75
2022/08/31 09:21:55;;;;;;;3.72;0.88;;;19.60;99.90;;;;;;5017634;28;20570;-77
2022/08/31 09:24:26;;;;;;;1.35;0.90;;;19.60;99.90;;;;;;5050480;28;20676;-76
2022/08/31 09:27:16;;;;;;;1.58;0.90;;;19.80;99.90;;;;;;5049704;28;20135;-75
2022/08/31 09:29:45;;;;;;;1.85;0.88;;;19.70;99.90;;;;;;5050393;28;20041;-76
2022/08/31 09:32:21;;;;;;;1.60;0.85;;;19.90;99.90;;;;;;5050647;28;20123;-75
2022/08/31 09:34:54;;;;;;;0.93;0.60;;;20.30;99.90;;;;;;5050086;28;20049;-74
2022/08/31 09:37:26;;;;;;;2.00;0.90;;;20.50;99.90;;;;;;5050292;28;20373;-75
2022/08/31 09:39:53;;;;;;;1.38;0.68;;;20.40;99.90;;;;;;5033826;28;20086;-75
2022/08/31 09:42:31;;;;;;;1.00;0.75;;;20.60;99.90;;;;;;5050628;28;20049;-76
2022/08/31 09:45:11;;;;;;;1.52;0.88;;;20.70;99.90;;;;;;5033352;28;20044;-74
2022/08/31 09:47:54;;;;;;;1.10;1.00;;;21.00;99.90;;;;;;5050283;28;20049;-74
2022/08/31 09:50:44;;;;;;;1.67;0.90;;;21.30;99.90;;;;;;5034129;28;20055;-74
2022/08/31 09:56:19;;;;;;;1.27;0.80;;;21.10;99.90;;;;;;5050817;28;20428;-77
2022/08/31 09:58:49;;;;;;;3.42;0.70;;;21.10;99.90;;;;;;5051087;28;20037;-76
2022/08/31 10:01:37;;;;;;;1.88;0.60;;;21.60;99.90;;;;;;5052219;28;20041;-76
2022/08/31 10:04:27;;;;;;;0.73;0.73;;;21.40;99.90;;;;;;5040572;28;20082;-76
2022/08/31 10:07:12;;;;;;;1.35;0.80;;;21.70;99.90;;;;;;5042751;28;20041;-75
2022/08/31 10:09:47;;;;;;;1.75;0.82;;;21.90;99.90;;;;;;5047255;28;20628;-79
2022/08/31 10:12:30;;;;;;;1.30;0.98;;;21.90;99.90;;;;;;5018692;28;20049;-76
2022/08/31 10:15:03;;;;;;;2.70;1.10;;;22.00;99.90;;;;;;5026344;28;20120;-78
2022/08/31 10:17:37;;;;;;;2.90;1.10;;;22.10;99.90;;;;;;5011074;28;20076;-78
2022/08/31 10:20:15;;;;;;;3.28;0.90;;;22.60;99.90;;;;;;5024287;28;20041;-79
2022/08/31 10:22:45;;;;;;;1.60;0.98;;;22.40;99.90;;;;;;5017010;28;20041;-78
2022/08/31 10:25:30;;;;;;;1.67;0.82;;;21.40;99.90;;;;;;5031941;28;20029;-77
2022/08/31 10:28:17;;;;;;;1.90;1.00;;;21.50;99.90;;;;;;5027904;28;20124;-75
2022/08/31 10:31:19;;;;;;;1.10;0.98;;;21.70;99.90;;;;;;5012953;28;20389;-76
2022/08/31 10:36:59;;;;;;;1.33;0.75;;;21.10;99.90;;;;;;5011938;28;20496;-77
2022/08/31 10:39:50;;;;;;;2.20;1.00;;;20.50;99.90;;;;;;4996600;28;20029;-76
2022/08/31 10:42:24;;;;;;;2.08;0.90;;;21.10;99.90;;;;;;5013820;28;20033;-76
2022/08/31 10:44:57;;;;;;;1.88;0.98;;;21.30;99.90;;;;;;5002548;28;20041;-75
2022/08/31 10:47:27;;;;;;;1.77;0.70;;;21.30;99.90;;;;;;5002907;28;20045;-78
2022/08/31 10:49:56;;;;;;;1.35;0.90;;;21.30;99.90;;;;;;4987176;28;20057;-78
2022/08/31 10:52:28;;;;;;;1.00;0.80;;;21.40;99.90;;;;;;5003082;28;20064;-78
2022/08/31 10:55:12;;;;;;;0.65;0.60;;;21.80;99.90;;;;;;5019880;28;20374;-78
2022/08/31 10:57:46;;;;;;;1.00;0.80;;;22.00;99.90;;;;;;5003328;28;20041;-78
2022/08/31 11:00:40;;;;;;;1.30;0.70;;;21.80;99.90;;;;;;5019333;28;20041;-77
2022/08/31 11:03:25;;;;;;;2.15;0.70;;;21.40;99.90;;;;;;4996678;28;20064;-77
2022/08/31 11:05:54;;;;;;;1.58;0.75;;;21.80;99.90;;;;;;5019638;28;20049;-78
2022/08/31 11:08:29;;;;;;;0.73;0.70;;;21.80;99.90;;;;;;5017662;28;20041;-77
2022/08/31 11:10:58;;;;;;;1.83;0.93;;;22.30;99.90;;;;;;5016045;28;20045;-77
2022/08/31 11:13:41;;;;;;;1.45;0.85;;;22.20;99.90;;;;;;5045836;28;20040;-77
2022/08/31 11:16:23;;;;;;;1.60;0.73;;;21.90;99.90;;;;;;5022170;28;20045;-77
2022/08/31 11:19:06;;;;;;;2.15;0.75;;;21.60;99.90;;;;;;5022624;28;20095;-77
2022/08/31 11:21:35;;;;;;;1.02;0.63;;;21.50;99.90;;;;;;5038938;28;20404;-78
2022/08/31 11:24:16;;;;;;;2.03;0.75;;;21.80;99.90;;;;;;5022255;28;20064;-76
2022/08/31 11:26:57;;;;;;;1.42;0.85;;;21.70;99.90;;;;;;5038285;28;20587;-76
2022/08/31 11:29:32;;;;;;;0.88;0.60;;;21.70;99.90;;;;;;5022375;28;20649;-77
2022/08/31 11:32:15;;;;;;;2.47;1.00;;;22.00;99.90;;;;;;5021512;28;20258;-78
2022/08/31 11:34:50;;;;;;;1.88;0.73;;;21.90;98.90;;;;;;5022707;28;20199;-77
2022/08/31 11:37:49;;;;;;;0.60;0.60;;;21.80;97.40;;;;;;5021466;28;20088;-77
2022/08/31 11:40:58;;;;;;;1.00;0.60;;;21.80;96.60;;;;;;5015546;28;20416;-76
2022/08/31 11:43:30;;;;;;;1.17;0.70;;;22.40;92.40;;;;;;5017934;28;20048;-77
2022/08/31 11:46:00;;;;;;;0.90;0.70;;;22.50;97.70;;;;;;5038434;28;20546;-78
2022/08/31 11:48:52;;;;;;;1.77;0.80;;;22.70;99.30;;;;;;5022790;28;20057;-79
2022/08/31 11:51:46;;;;;;;6.20;0.90;;;22.90;74.60;;;;;;5038253;28;20123;-79
2022/08/31 11:54:25;;;;;;;1.20;0.70;;;22.60;76.70;;;;;;5016431;28;20118;-78
2022/08/31 11:56:55;;;;;;;2.97;0.95;;;22.40;90.50;;;;;;5034863;28;20138;-77
2022/08/31 11:59:28;;;;;;;0.60;0.60;;;22.70;84.90;;;;;;5019176;28;20405;-79
2022/08/31 12:01:57;;;;;;;5.18;0.80;;;23.00;88.10;;;;;;5017742;28;20037;-77
2022/08/31 12:04:51;;;;;;;1.55;0.80;;;22.30;90.10;;;;;;4997658;28;20034;-80
2022/08/31 12:07:33;;;;;;;2.20;0.93;;;22.20;79.50;;;;;;4991252;28;20049;-79
2022/08/31 12:10:14;;;;;;;1.92;0.70;;;22.20;80.70;;;;;;4998944;28;20041;-79
2022/08/31 12:13:21;;;;;;;1.42;0.70;;;22.20;72.30;;;;;;5015671;28;20056;-78
2022/08/31 12:16:28;;;;;;;2.15;0.80;;;22.40;79.30;;;;;;4998852;28;20045;-79
2022/08/31 12:19:06;;;;;;;3.08;0.98;;;21.90;69.80;;;;;;5012214;28;20572;-77
2022/08/31 12:25:02;;;;;;;4.10;1.15;;;21.80;71.10;;;;;;5015026;28;20091;-79
2022/08/31 12:27:33;;;;;;;4.88;0.93;;;21.80;79.60;;;;;;5033488;28;20061;-80
2022/08/31 12:30:13;;;;;;;9.85;0.98;;;22.10;85.10;;;;;;5018033;28;20041;-78
2022/08/31 12:32:42;;;;;;;1.67;0.57;;;22.00;66.40;;;;;;5018912;28;20587;-77
2022/08/31 12:35:18;;;;;;;0.70;0.65;;;22.00;66.10;;;;;;5034045;28;20041;-78
2022/08/31 12:37:44;;;;;;;1.23;0.70;;;21.80;65.90;;;;;;5034488;28;20115;-78
2022/08/31 12:40:18;;;;;;;1.13;0.57;;;21.90;73.20;;;;;;5017434;28;20041;-78
2022/08/31 12:42:53;;;;;;;1.20;0.70;;;22.00;71.50;;;;;;5017931;28;20045;-78
2022/08/31 12:45:38;;;;;;;3.15;0.73;;;21.90;70.20;;;;;;5033874;28;20369;-77
2022/08/31 12:48:09;;;;;;;1.23;0.63;;;21.90;55.60;;;;;;5017328;28;20049;-78
2022/08/31 12:50:43;;;;;;;2.28;0.95;;;21.90;56.60;;;;;;5034014;28;20045;-77
2022/08/31 12:53:38;;;;;;;1.50;0.60;;;21.90;52.10;;;;;;5033871;28;20489;-76
2022/08/31 12:56:59;;;;;;;2.28;0.80;;;22.00;59.90;;;;;;5033887;28;20040;-76
2022/08/31 12:59:43;;;;;;;2.75;0.70;;;22.30;59.60;;;;;;4974449;28;20543;-78
2022/08/31 13:02:11;;;;;;;1.02;0.70;;;22.30;58.90;;;;;;5033906;28;20052;-78
2022/08/31 13:04:42;;;;;;;0.70;0.60;;;22.50;65.30;;;;;;5027537;28;20060;-76
2022/08/31 13:07:41;;;;;;;0.80;0.63;;;22.40;43.90;;;;;;4980968;28;20534;-78
2022/08/31 13:10:08;;;;;;;2.70;1.20;;;22.10;26.40;;;;;;4954537;28;20773;-79
2022/08/31 13:12:35;;;;;;;0.75;0.70;;;22.30;50.60;;;;;;4998157;28;20089;-77
2022/08/31 13:15:01;;;;;;;0.95;0.70;;;22.90;41.20;;;;;;4996641;28;20052;-78
2022/08/31 13:17:33;;;;;;;2.25;0.70;;;22.50;26.60;;;;;;4997880;28;20038;-80
2022/08/31 13:20:00;;;;;;;1.25;0.70;;;23.20;32.00;;;;;;4996936;28;20046;-79
2022/08/31 13:22:30;;;;;;;0.90;0.60;;;23.20;27.20;;;;;;4981206;28;20041;-78
2022/08/31 13:25:15;;;;;;;0.90;0.70;;;23.50;20.50;;;;;;4997399;28;20191;-77